sensor_id;sensor_type;location;lat;lon;timestamp;P1;durP1;ratioP1;P2;durP2;ratioP2
35757;SDS011;21879;50.110;18.900;2023-01-20T00:04:51;38.80;;;23.60;;
35757;SDS011;21879;50.110;18.900;2023-01-20T00:15:18;40.00;;;23.40;;
35757;SDS011;21879;50.110;18.900;2023-01-20T00:25:46;40.60;;;24.40;;
35757;SDS011;21879;50.110;18.900;2023-01-20T00:36:14;40.20;;;26.20;;
35757;SDS011;21879;50.110;18.900;2023-01-20T00:46:42;39.80;;;23.30;;
35757;SDS011;21879;50.110;18.900;2023-01-20T00:57:10;46.30;;;27.80;;
35757;SDS011;21879;50.110;18.900;2023-01-20T01:07:38;37.30;;;25.90;;
35757;SDS011;21879;50.110;18.900;2023-01-20T01:18:06;35.20;;;23.30;;
35757;SDS011;21879;50.110;18.900;2023-01-20T01:28:33;38.00;;;23.00;;
35757;SDS011;21879;50.110;18.900;2023-01-20T01:39:01;40.60;;;25.20;;
35757;SDS011;21879;50.110;18.900;2023-01-20T01:49:29;31.20;;;20.90;;
35757;SDS011;21879;50.110;18.900;2023-01-20T01:59:58;39.00;;;22.40;;
35757;SDS011;21879;50.110;18.900;2023-01-20T02:10:25;45.90;;;24.00;;
35757;SDS011;21879;50.110;18.900;2023-01-20T02:21:16;45.30;;;27.80;;
35757;SDS011;21879;50.110;18.900;2023-01-20T02:42:44;49.20;;;31.40;;
35757;SDS011;21879;50.110;18.900;2023-01-20T02:53:15;43.70;;;27.00;;
35757;SDS011;21879;50.110;18.900;2023-01-20T03:03:45;40.20;;;24.60;;
35757;SDS011;21879;50.110;18.900;2023-01-20T03:14:17;36.10;;;23.60;;
35757;SDS011;21879;50.110;18.900;2023-01-20T03:24:45;32.80;;;22.10;;
35757;SDS011;21879;50.110;18.900;2023-01-20T03:35:14;40.50;;;23.70;;
35757;SDS011;21879;50.110;18.900;2023-01-20T03:45:45;29.40;;;19.00;;
35757;SDS011;21879;50.110;18.900;2023-01-20T03:56:20;32.90;;;20.70;;
35757;SDS011;21879;50.110;18.900;2023-01-20T04:06:53;40.00;;;23.10;;
35757;SDS011;21879;50.110;18.900;2023-01-20T04:38:17;49.60;;;29.10;;
35757;SDS011;21879;50.110;18.900;2023-01-20T04:48:44;46.00;;;28.80;;
35757;SDS011;21879;50.110;18.900;2023-01-20T04:59:12;44.90;;;27.20;;
35757;SDS011;21879;50.110;18.900;2023-01-20T05:09:39;43.40;;;27.70;;
35757;SDS011;21879;50.110;18.900;2023-01-20T05:20:08;46.40;;;25.40;;
35757;SDS011;21879;50.110;18.900;2023-01-20T05:30:36;50.80;;;29.70;;
35757;SDS011;21879;50.110;18.900;2023-01-20T05:41:04;43.80;;;23.90;;
35757;SDS011;21879;50.110;18.900;2023-01-20T05:51:33;42.30;;;26.30;;
35757;SDS011;21879;50.110;18.900;2023-01-20T06:02:01;33.30;;;22.70;;
35757;SDS011;21879;50.110;18.900;2023-01-20T06:12:28;38.90;;;25.40;;
35757;SDS011;21879;50.110;18.900;2023-01-20T06:22:56;40.00;;;22.00;;
35757;SDS011;21879;50.110;18.900;2023-01-20T06:33:23;40.20;;;23.60;;
35757;SDS011;21879;50.110;18.900;2023-01-20T06:43:51;53.80;;;33.50;;
35757;SDS011;21879;50.110;18.900;2023-01-20T06:54:19;47.30;;;26.60;;
35757;SDS011;21879;50.110;18.900;2023-01-20T07:04:47;53.20;;;28.70;;
35757;SDS011;21879;50.110;18.900;2023-01-20T07:15:17;49.70;;;27.50;;
35757;SDS011;21879;50.110;18.900;2023-01-20T07:25:45;43.50;;;29.60;;
35757;SDS011;21879;50.110;18.900;2023-01-20T07:36:13;35.60;;;20.40;;
35757;SDS011;21879;50.110;18.900;2023-01-20T07:46:42;30.20;;;16.70;;
35757;SDS011;21879;50.110;18.900;2023-01-20T07:57:09;34.40;;;18.80;;
35757;SDS011;21879;50.110;18.900;2023-01-20T08:07:37;26.10;;;17.80;;
35757;SDS011;21879;50.110;18.900;2023-01-20T08:18:04;31.00;;;16.80;;
35757;SDS011;21879;50.110;18.900;2023-01-20T08:28:32;32.30;;;18.40;;
35757;SDS011;21879;50.110;18.900;2023-01-20T08:39:02;34.40;;;18.60;;
35757;SDS011;21879;50.110;18.900;2023-01-20T08:49:32;30.70;;;17.10;;
35757;SDS011;21879;50.110;18.900;2023-01-20T08:59:59;39.60;;;19.20;;
35757;SDS011;21879;50.110;18.900;2023-01-20T09:10:42;43.70;;;24.60;;
35757;SDS011;21879;50.110;18.900;2023-01-20T09:21:11;49.60;;;25.30;;
35757;SDS011;21879;50.110;18.900;2023-01-20T09:31:39;48.70;;;25.40;;
35757;SDS011;21879;50.110;18.900;2023-01-20T09:42:16;53.90;;;28.80;;
35757;SDS011;21879;50.110;18.900;2023-01-20T09:53:14;41.30;;;27.80;;
35757;SDS011;21879;50.110;18.900;2023-01-20T10:03:54;44.70;;;24.20;;
35757;SDS011;21879;50.110;18.900;2023-01-20T10:14:28;37.30;;;20.90;;
35757;SDS011;21879;50.110;18.900;2023-01-20T10:25:01;41.10;;;23.20;;
35757;SDS011;21879;50.110;18.900;2023-01-20T10:35:34;36.60;;;23.10;;
35757;SDS011;21879;50.110;18.900;2023-01-20T10:46:08;42.70;;;23.10;;
35757;SDS011;21879;50.110;18.900;2023-01-20T10:56:47;40.10;;;25.50;;
35757;SDS011;21879;50.110;18.900;2023-01-20T11:07:18;43.70;;;24.50;;
35757;SDS011;21879;50.110;18.900;2023-01-20T11:17:46;58.80;;;31.30;;
35757;SDS011;21879;50.110;18.900;2023-01-20T11:28:53;50.10;;;33.00;;
35757;SDS011;21879;50.110;18.900;2023-01-20T11:39:25;49.80;;;30.70;;
35757;SDS011;21879;50.110;18.900;2023-01-20T11:50:15;53.90;;;35.00;;
35757;SDS011;21879;50.110;18.900;2023-01-20T12:00:50;55.80;;;33.20;;
35757;SDS011;21879;50.110;18.900;2023-01-20T12:11:25;49.90;;;29.50;;
35757;SDS011;21879;50.110;18.900;2023-01-20T12:21:56;40.80;;;26.20;;
35757;SDS011;21879;50.110;18.900;2023-01-20T12:32:30;32.70;;;19.90;;
35757;SDS011;21879;50.110;18.900;2023-01-20T12:43:10;30.20;;;17.80;;
35757;SDS011;21879;50.110;18.900;2023-01-20T12:54:01;30.20;;;16.90;;
35757;SDS011;21879;50.110;18.900;2023-01-20T13:04:47;32.80;;;20.00;;
35757;SDS011;21879;50.110;18.900;2023-01-20T13:15:26;25.00;;;13.20;;
35757;SDS011;21879;50.110;18.900;2023-01-20T13:25:57;25.90;;;15.10;;
35757;SDS011;21879;50.110;18.900;2023-01-20T13:36:28;27.50;;;17.00;;
35757;SDS011;21879;50.110;18.900;2023-01-20T13:46:57;31.30;;;18.50;;
35757;SDS011;21879;50.110;18.900;2023-01-20T14:08:14;33.20;;;20.60;;
35757;SDS011;21879;50.110;18.900;2023-01-20T14:18:43;31.20;;;20.00;;
35757;SDS011;21879;50.110;18.900;2023-01-20T14:29:19;32.30;;;20.10;;
35757;SDS011;21879;50.110;18.900;2023-01-20T14:39:48;50.30;;;32.00;;
35757;SDS011;21879;50.110;18.900;2023-01-20T14:50:18;32.80;;;19.80;;
35757;SDS011;21879;50.110;18.900;2023-01-20T15:00:46;41.80;;;23.20;;
35757;SDS011;21879;50.110;18.900;2023-01-20T15:11:25;32.60;;;22.80;;
35757;SDS011;21879;50.110;18.900;2023-01-20T15:21:55;34.70;;;21.80;;
35757;SDS011;21879;50.110;18.900;2023-01-20T15:32:40;37.00;;;21.90;;
35757;SDS011;21879;50.110;18.900;2023-01-20T15:43:13;33.90;;;22.50;;
35757;SDS011;21879;50.110;18.900;2023-01-20T15:53:41;38.10;;;19.70;;
35757;SDS011;21879;50.110;18.900;2023-01-20T16:04:09;33.40;;;17.30;;
35757;SDS011;21879;50.110;18.900;2023-01-20T16:14:37;32.60;;;18.70;;
35757;SDS011;21879;50.110;18.900;2023-01-20T16:25:07;29.90;;;18.90;;
35757;SDS011;21879;50.110;18.900;2023-01-20T16:35:41;37.80;;;23.20;;
35757;SDS011;21879;50.110;18.900;2023-01-20T16:46:11;34.00;;;18.50;;
35757;SDS011;21879;50.110;18.900;2023-01-20T16:56:40;36.60;;;18.40;;
35757;SDS011;21879;50.110;18.900;2023-01-20T17:07:07;30.20;;;20.00;;
35757;SDS011;21879;50.110;18.900;2023-01-20T17:17:35;32.80;;;21.10;;
35757;SDS011;21879;50.110;18.900;2023-01-20T17:28:03;32.40;;;19.80;;
35757;SDS011;21879;50.110;18.900;2023-01-20T17:38:31;31.30;;;18.40;;
35757;SDS011;21879;50.110;18.900;2023-01-20T17:48:59;34.90;;;19.10;;
35757;SDS011;21879;50.110;18.900;2023-01-20T17:59:30;40.20;;;22.20;;
35757;SDS011;21879;50.110;18.900;2023-01-20T18:09:57;40.20;;;22.90;;
35757;SDS011;21879;50.110;18.900;2023-01-20T18:20:25;38.30;;;21.00;;
35757;SDS011;21879;50.110;18.900;2023-01-20T18:30:53;37.00;;;21.20;;
35757;SDS011;21879;50.110;18.900;2023-01-20T18:41:32;38.30;;;22.80;;
35757;SDS011;21879;50.110;18.900;2023-01-20T18:52:01;40.90;;;25.20;;
35757;SDS011;21879;50.110;18.900;2023-01-20T19:02:29;43.80;;;26.10;;
35757;SDS011;21879;50.110;18.900;2023-01-20T19:12:57;39.90;;;22.00;;
35757;SDS011;21879;50.110;18.900;2023-01-20T19:23:25;39.60;;;23.10;;
35757;SDS011;21879;50.110;18.900;2023-01-20T19:33:53;34.30;;;19.70;;
35757;SDS011;21879;50.110;18.900;2023-01-20T19:44:21;33.70;;;19.60;;
35757;SDS011;21879;50.110;18.900;2023-01-20T19:54:51;32.90;;;20.00;;
35757;SDS011;21879;50.110;18.900;2023-01-20T20:05:19;28.30;;;19.50;;
35757;SDS011;21879;50.110;18.900;2023-01-20T20:15:46;33.60;;;18.30;;
35757;SDS011;21879;50.110;18.900;2023-01-20T20:26:14;29.30;;;17.50;;
35757;SDS011;21879;50.110;18.900;2023-01-20T20:36:42;32.10;;;18.40;;
35757;SDS011;21879;50.110;18.900;2023-01-20T20:47:10;29.30;;;16.40;;
35757;SDS011;21879;50.110;18.900;2023-01-20T20:57:37;26.60;;;15.50;;
35757;SDS011;21879;50.110;18.900;2023-01-20T21:08:05;29.90;;;17.50;;
35757;SDS011;21879;50.110;18.900;2023-01-20T21:18:33;25.00;;;15.00;;
35757;SDS011;21879;50.110;18.900;2023-01-20T21:29:01;27.20;;;15.30;;
35757;SDS011;21879;50.110;18.900;2023-01-20T21:39:28;28.40;;;18.10;;
35757;SDS011;21879;50.110;18.900;2023-01-20T21:49:56;30.50;;;16.30;;
35757;SDS011;21879;50.110;18.900;2023-01-20T22:00:41;26.90;;;16.20;;
35757;SDS011;21879;50.110;18.900;2023-01-20T22:11:12;28.30;;;15.70;;
35757;SDS011;21879;50.110;18.900;2023-01-20T22:21:41;30.10;;;16.30;;
35757;SDS011;21879;50.110;18.900;2023-01-20T22:32:09;25.10;;;16.70;;
35757;SDS011;21879;50.110;18.900;2023-01-20T22:42:37;29.40;;;18.70;;
35757;SDS011;21879;50.110;18.900;2023-01-20T22:53:05;25.40;;;16.30;;
35757;SDS011;21879;50.110;18.900;2023-01-20T23:03:33;26.20;;;14.50;;
35757;SDS011;21879;50.110;18.900;2023-01-20T23:14:00;21.70;;;12.20;;
35757;SDS011;21879;50.110;18.900;2023-01-20T23:24:28;23.60;;;12.30;;
35757;SDS011;21879;50.110;18.900;2023-01-20T23:34:56;24.40;;;13.10;;
35757;SDS011;21879;50.110;18.900;2023-01-20T23:45:23;21.10;;;13.00;;
35757;SDS011;21879;50.110;18.900;2023-01-20T23:55:57;17.80;;;8.70;;
